createdAt,value
2023-02-19T00:00:34.822Z,70.80
2023-02-19T00:01:34.926Z,68.20
2023-02-19T00:02:34.704Z,74.00
2023-02-19T00:03:34.654Z,73.50
2023-02-19T00:04:34.820Z,78.50
2023-02-19T00:05:34.615Z,73.40
2023-02-19T00:06:34.682Z,75.50
2023-02-19T00:07:34.830Z,69.40
2023-02-19T00:08:34.583Z,72.60
2023-02-19T00:09:34.619Z,74.50
2023-02-19T00:10:34.585Z,78.60
2023-02-19T00:11:34.572Z,75.70
2023-02-19T00:12:34.549Z,80.30
2023-02-19T00:13:34.559Z,68.80
2023-02-19T00:14:34.530Z,77.10
2023-02-19T00:15:34.588Z,85.70
2023-02-19T00:16:34.771Z,78.00
2023-02-19T00:17:34.556Z,78.10
2023-02-19T00:18:34.487Z,78.60
2023-02-19T00:19:34.503Z,86.80
2023-02-19T00:20:34.456Z,78.10
2023-02-19T00:21:34.438Z,73.10
2023-02-19T00:22:34.434Z,81.10
2023-02-19T00:23:34.461Z,81.60
2023-02-19T00:24:34.428Z,78.00
2023-02-19T00:25:34.414Z,72.50
2023-02-19T00:26:34.593Z,74.60
2023-02-19T00:27:34.476Z,73.10
2023-02-19T00:28:34.431Z,71.50
2023-02-19T00:29:34.405Z,75.20
2023-02-19T00:30:34.358Z,73.50
2023-02-19T00:31:34.613Z,79.20
2023-02-19T00:32:34.390Z,78.00
2023-02-19T00:33:34.366Z,72.30
2023-02-19T00:34:34.338Z,79.60
2023-02-19T00:35:34.335Z,73.50
2023-02-19T00:36:34.348Z,75.90
2023-02-19T00:37:34.308Z,77.20
2023-02-19T00:38:34.373Z,80.60
2023-02-19T00:39:34.349Z,71.70
2023-02-19T00:40:34.261Z,70.80
2023-02-19T00:41:34.356Z,70.80
2023-02-19T00:42:34.274Z,77.60
2023-02-19T00:43:34.264Z,78.30
2023-02-19T00:44:34.413Z,79.50
2023-02-19T00:45:34.323Z,79.20
2023-02-19T00:46:34.278Z,83.40
2023-02-19T00:47:34.225Z,74.60
2023-02-19T00:48:34.179Z,77.60
2023-02-19T00:49:34.254Z,78.30
2023-02-19T00:50:34.171Z,80.20
2023-02-19T00:51:34.154Z,76.30
2023-02-19T00:52:34.177Z,86.70
2023-02-19T00:53:34.153Z,81.10
2023-02-19T00:54:34.120Z,71.60
2023-02-19T00:55:34.136Z,76.00
2023-02-19T00:56:34.127Z,77.30
2023-02-19T00:57:34.122Z,76.50
2023-02-19T00:58:34.196Z,76.10
2023-02-19T00:59:34.117Z,80.70
2023-02-19T01:00:34.052Z,71.80
2023-02-19T01:01:34.121Z,82.20
2023-02-19T01:02:34.059Z,75.20
2023-02-19T01:03:34.039Z,68.00
2023-02-19T01:04:34.079Z,75.30
2023-02-19T01:05:34.004Z,75.30
2023-02-19T01:06:34.046Z,77.70
2023-02-19T01:07:34.047Z,81.90
2023-02-19T01:08:34.002Z,81.20
2023-02-19T01:09:34.048Z,83.10
2023-02-19T01:10:33.947Z,81.20
2023-02-19T01:11:34.294Z,82.40
2023-02-19T01:12:33.953Z,81.90
2023-02-19T01:13:33.982Z,83.10
2023-02-19T01:14:33.954Z,72.60
2023-02-19T01:15:33.922Z,80.80
2023-02-19T01:16:34.810Z,82.00
2023-02-19T01:17:33.894Z,84.80
2023-02-19T01:18:33.887Z,82.00
2023-02-19T01:19:34.785Z,79.70
2023-02-19T01:20:33.870Z,88.20
2023-02-19T01:21:33.885Z,76.90
2023-02-19T01:22:33.832Z,81.20
2023-02-19T01:23:33.838Z,83.40
2023-02-19T01:24:33.836Z,88.10
2023-02-19T01:25:33.805Z,84.00
2023-02-19T01:26:33.804Z,84.50
2023-02-19T01:27:33.811Z,84.40
2023-02-19T01:28:33.773Z,80.60
2023-02-19T01:29:33.770Z,80.10
2023-02-19T01:30:33.833Z,92.50
2023-02-19T01:31:33.865Z,86.80
2023-02-19T01:32:33.712Z,78.60
2023-02-19T01:33:33.767Z,78.60
2023-02-19T01:34:33.710Z,86.90
2023-02-19T01:35:33.692Z,89.40
2023-02-19T01:36:33.708Z,84.90
2023-02-19T01:37:33.674Z,79.70
2023-02-19T01:38:33.712Z,88.70
2023-02-19T01:39:33.686Z,83.80
2023-02-19T01:40:33.690Z,79.30
2023-02-19T01:41:33.730Z,85.70
2023-02-19T01:42:33.654Z,84.00
2023-02-19T01:43:33.660Z,67.80
2023-02-19T01:44:33.619Z,65.80
2023-02-19T01:45:33.614Z,65.10
2023-02-19T01:46:33.639Z,69.90
2023-02-19T01:47:33.579Z,73.00
2023-02-19T01:48:33.595Z,69.30
2023-02-19T01:49:33.586Z,65.70
2023-02-19T01:50:33.573Z,68.40
2023-02-19T01:51:33.557Z,67.60
2023-02-19T01:52:33.523Z,61.20
2023-02-19T01:53:33.537Z,68.80
2023-02-19T01:54:33.517Z,76.80
2023-02-19T01:55:33.526Z,72.40
2023-02-19T01:56:33.505Z,69.60
2023-02-19T01:57:33.453Z,63.70
2023-02-19T01:58:33.461Z,72.20
2023-02-19T01:59:33.449Z,70.30
2023-02-19T02:00:33.490Z,60.20
2023-02-19T02:01:33.429Z,66.80
2023-02-19T02:02:33.451Z,71.20
2023-02-19T02:03:33.404Z,74.90
2023-02-19T02:04:33.409Z,67.30
2023-02-19T02:05:33.424Z,67.70
2023-02-19T02:06:33.410Z,65.30
2023-02-19T02:07:33.368Z,59.50
2023-02-19T02:08:33.400Z,62.90
2023-02-19T02:09:33.355Z,66.40
2023-02-19T02:10:33.327Z,69.70
2023-02-19T02:11:33.384Z,63.70
2023-02-19T02:12:33.406Z,67.50
2023-02-19T02:13:33.293Z,65.80
2023-02-19T02:14:33.305Z,66.60
2023-02-19T02:15:33.313Z,63.20
2023-02-19T02:16:33.391Z,54.40
2023-02-19T02:17:33.291Z,61.10
2023-02-19T02:18:33.250Z,55.70
2023-02-19T02:19:33.288Z,57.00
2023-02-19T02:20:33.252Z,60.10
2023-02-19T02:21:33.219Z,61.60
2023-02-19T02:22:33.239Z,64.10
2023-02-19T02:23:33.249Z,55.50
2023-02-19T02:24:33.184Z,61.10
2023-02-19T02:25:33.209Z,59.70
2023-02-19T02:26:33.161Z,53.60
2023-02-19T02:27:33.195Z,58.80
2023-02-19T02:28:33.146Z,60.00
2023-02-19T02:29:33.210Z,61.50
2023-02-19T02:30:33.209Z,44.90
2023-02-19T02:31:33.318Z,51.10
2023-02-19T02:32:33.129Z,53.90
2023-02-19T02:33:33.121Z,46.30
2023-02-19T02:34:33.105Z,49.90
2023-02-19T02:35:33.110Z,47.40
2023-02-19T02:36:33.093Z,46.60
2023-02-19T02:37:33.094Z,52.10
2023-02-19T02:38:33.095Z,46.30
2023-02-19T02:39:33.036Z,48.00
2023-02-19T02:40:33.063Z,45.70
2023-02-19T02:41:33.029Z,46.30
2023-02-19T02:42:33.101Z,47.80
2023-02-19T02:43:33.074Z,41.30
2023-02-19T02:44:33.019Z,44.30
2023-02-19T02:45:33.034Z,40.30
2023-02-19T02:46:33.016Z,43.30
2023-02-19T02:47:33.036Z,41.90
2023-02-19T02:48:32.960Z,41.20
2023-02-19T02:49:32.981Z,46.60
2023-02-19T02:50:32.933Z,43.00
2023-02-19T02:51:32.910Z,45.50
2023-02-19T02:52:32.939Z,41.80
2023-02-19T02:53:32.957Z,41.50
2023-02-19T02:54:32.904Z,49.70
2023-02-19T02:55:32.890Z,45.30
2023-02-19T02:56:32.854Z,41.90
2023-02-19T02:57:32.860Z,46.50
2023-02-19T02:58:32.907Z,52.70
2023-02-19T02:59:32.857Z,46.40
2023-02-19T03:00:32.834Z,49.60
2023-02-19T03:01:32.843Z,48.20
2023-02-19T03:02:32.836Z,51.20
2023-02-19T03:03:32.791Z,56.40
2023-02-19T03:04:32.794Z,50.40
2023-02-19T03:05:32.779Z,61.50
2023-02-19T03:06:32.791Z,60.80
2023-02-19T03:07:32.764Z,64.30
2023-02-19T03:08:32.774Z,63.20
2023-02-19T03:09:32.736Z,62.30
2023-02-19T03:10:32.714Z,64.70
2023-02-19T03:11:32.721Z,62.00
2023-02-19T03:12:32.736Z,73.20
2023-02-19T03:13:32.715Z,69.40
2023-02-19T03:14:32.691Z,74.50
2023-02-19T03:15:32.751Z,74.70
2023-02-19T03:16:32.706Z,70.10
2023-02-19T03:17:32.674Z,71.80
2023-02-19T03:18:32.654Z,68.20
2023-02-19T03:19:32.653Z,70.60
2023-02-19T03:20:32.630Z,68.30
2023-02-19T03:21:32.634Z,74.90
2023-02-19T03:22:32.598Z,77.40
2023-02-19T03:23:32.601Z,73.90
2023-02-19T03:24:32.585Z,78.20
2023-02-19T03:25:32.581Z,70.00
2023-02-19T03:26:32.577Z,68.50
2023-02-19T03:27:32.548Z,72.00
2023-02-19T03:28:32.543Z,76.20
2023-02-19T03:29:32.541Z,72.60
2023-02-19T03:30:32.577Z,73.50
2023-02-19T03:31:32.597Z,74.80
2023-02-19T03:32:32.528Z,70.10
2023-02-19T03:33:32.502Z,76.30
2023-02-19T03:34:32.520Z,68.70
2023-02-19T03:35:32.444Z,70.80
2023-02-19T03:36:32.482Z,70.90
2023-02-19T03:37:32.451Z,61.40
2023-02-19T03:38:32.491Z,71.60
2023-02-19T03:39:32.436Z,77.20
2023-02-19T03:40:32.455Z,71.00
2023-02-19T03:41:32.403Z,64.20
2023-02-19T03:42:32.434Z,61.50
2023-02-19T03:43:32.456Z,59.70
2023-02-19T03:44:32.383Z,63.70
2023-02-19T03:45:32.350Z,62.60
2023-02-19T03:46:32.371Z,61.40
2023-02-19T03:47:32.360Z,59.70
2023-02-19T03:48:32.377Z,59.50
2023-02-19T03:49:32.354Z,60.10
2023-02-19T03:50:32.325Z,58.50
2023-02-19T03:51:32.328Z,61.60
2023-02-19T03:52:32.294Z,64.20
2023-02-19T03:53:32.298Z,63.10
2023-02-19T03:54:32.271Z,69.40
2023-02-19T03:55:32.268Z,62.80
2023-02-19T03:56:32.247Z,59.20
2023-02-19T03:57:32.237Z,58.30
2023-02-19T03:58:32.240Z,66.20
2023-02-19T03:59:32.212Z,66.90
2023-02-19T04:00:32.216Z,56.00
2023-02-19T04:01:32.188Z,65.40
2023-02-19T04:02:32.318Z,61.80
2023-02-19T04:03:32.182Z,54.20
2023-02-19T04:04:32.240Z,59.50
2023-02-19T04:05:32.174Z,59.00
2023-02-19T04:06:32.154Z,63.10
2023-02-19T04:07:32.232Z,58.20
2023-02-19T04:08:32.126Z,56.90
2023-02-19T04:09:32.111Z,61.70
2023-02-19T04:10:32.175Z,61.90
2023-02-19T04:11:32.125Z,61.00
2023-02-19T04:12:32.117Z,61.50
2023-02-19T04:13:32.104Z,57.60
2023-02-19T04:14:32.069Z,54.90
2023-02-19T04:15:32.060Z,64.50
2023-02-19T04:16:32.075Z,57.90
2023-02-19T04:17:32.026Z,57.30
2023-02-19T04:18:32.004Z,58.60
2023-02-19T04:19:32.043Z,52.50
2023-02-19T04:20:32.043Z,60.30
2023-02-19T04:21:31.987Z,55.00
2023-02-19T04:22:31.991Z,52.40
2023-02-19T04:23:31.977Z,60.10
2023-02-19T04:24:31.972Z,50.60
2023-02-19T04:25:31.950Z,57.10
2023-02-19T04:26:31.944Z,53.30
2023-02-19T04:27:31.932Z,58.20
2023-02-19T04:28:31.917Z,50.00
2023-02-19T04:29:31.882Z,56.60
2023-02-19T04:30:32.065Z,58.00
2023-02-19T04:31:31.968Z,57.00
2023-02-19T04:32:31.875Z,64.70
2023-02-19T04:33:31.857Z,52.40
2023-02-19T04:34:31.857Z,55.00
2023-02-19T04:35:31.841Z,55.40
2023-02-19T04:36:31.839Z,51.30
2023-02-19T04:37:31.816Z,50.30
2023-02-19T04:38:31.796Z,49.20
2023-02-19T04:39:31.794Z,48.70
2023-02-19T04:40:31.810Z,52.00
2023-02-19T04:41:31.776Z,51.90
2023-02-19T04:42:31.797Z,52.40
2023-02-19T04:43:31.726Z,54.50
2023-02-19T04:44:31.747Z,55.50
2023-02-19T04:45:31.708Z,48.50
2023-02-19T04:46:31.743Z,52.80
2023-02-19T04:47:31.691Z,44.60
2023-02-19T04:48:31.675Z,53.50
2023-02-19T04:49:31.722Z,56.00
2023-02-19T04:50:31.707Z,50.50
2023-02-19T04:51:31.666Z,49.90
2023-02-19T04:52:31.637Z,48.00
2023-02-19T04:53:31.624Z,50.80
2023-02-19T04:54:31.622Z,50.80
2023-02-19T04:55:31.606Z,50.10
2023-02-19T04:56:31.656Z,47.70
2023-02-19T04:57:31.627Z,49.60
2023-02-19T04:58:31.605Z,51.90
2023-02-19T04:59:31.558Z,48.70
2023-02-19T05:00:31.595Z,48.70
2023-02-19T05:01:31.572Z,52.50
2023-02-19T05:02:31.561Z,49.70
2023-02-19T05:03:31.527Z,46.60
2023-02-19T05:04:31.594Z,53.50
2023-02-19T05:05:31.502Z,44.30
2023-02-19T05:06:31.493Z,45.00
2023-02-19T05:07:31.514Z,47.90
2023-02-19T05:08:31.481Z,52.10
2023-02-19T05:09:31.452Z,45.30
2023-02-19T05:10:31.459Z,47.30
2023-02-19T05:11:31.445Z,47.70
2023-02-19T05:12:31.440Z,48.30
2023-02-19T05:13:31.447Z,45.40
2023-02-19T05:14:31.431Z,48.70
2023-02-19T05:15:31.422Z,50.90
2023-02-19T05:16:31.417Z,47.00
2023-02-19T05:17:31.388Z,44.00
2023-02-19T05:18:31.407Z,46.70
2023-02-19T05:19:31.361Z,45.70
2023-02-19T05:20:31.377Z,53.00
2023-02-19T05:21:31.353Z,49.40
2023-02-19T05:22:31.333Z,47.10
2023-02-19T05:23:31.346Z,45.20
2023-02-19T05:24:31.330Z,51.00
2023-02-19T05:25:31.316Z,49.20
2023-02-19T05:26:31.286Z,39.70
2023-02-19T05:27:31.276Z,42.10
2023-02-19T05:28:31.303Z,46.40
2023-02-19T05:29:31.247Z,46.70
2023-02-19T05:30:31.328Z,41.50
2023-02-19T05:31:31.368Z,46.80
2023-02-19T05:32:31.260Z,47.40
2023-02-19T05:33:31.231Z,45.10
2023-02-19T05:34:31.212Z,44.60
2023-02-19T05:35:31.180Z,42.80
2023-02-19T05:36:31.205Z,48.60
2023-02-19T05:37:31.200Z,45.40
2023-02-19T05:38:31.164Z,51.70
2023-02-19T05:39:31.137Z,54.50
2023-02-19T05:40:31.138Z,46.90
2023-02-19T05:41:31.140Z,47.40
2023-02-19T05:42:31.134Z,50.50
2023-02-19T05:43:31.104Z,51.30
2023-02-19T05:44:31.123Z,53.50
2023-02-19T05:45:31.128Z,52.30
2023-02-19T05:46:31.151Z,53.50
2023-02-19T05:47:31.055Z,43.80
2023-02-19T05:48:31.109Z,46.30
2023-02-19T05:49:31.072Z,49.20
2023-02-19T05:50:31.041Z,42.90
2023-02-19T05:51:31.043Z,49.50
2023-02-19T05:52:31.012Z,44.30
2023-02-19T05:53:30.990Z,42.20
2023-02-19T05:54:30.997Z,41.90
2023-02-19T05:55:31.014Z,44.50
2023-02-19T05:56:30.991Z,41.30
2023-02-19T05:57:30.956Z,44.60
2023-02-19T05:58:30.962Z,39.50
2023-02-19T05:59:30.956Z,41.10
2023-02-19T06:00:30.951Z,46.50
2023-02-19T06:01:30.925Z,44.00
2023-02-19T06:02:30.944Z,47.60
2023-02-19T06:03:30.903Z,44.40
2023-02-19T06:04:30.891Z,43.00
2023-02-19T06:05:30.884Z,41.20
2023-02-19T06:06:30.909Z,39.40
2023-02-19T06:07:30.887Z,44.90
2023-02-19T06:08:30.832Z,43.20
2023-02-19T06:09:30.871Z,44.10
2023-02-19T06:10:30.860Z,42.00
2023-02-19T06:11:30.817Z,40.10
2023-02-19T06:12:30.788Z,38.30
2023-02-19T06:13:30.796Z,42.30
2023-02-19T06:14:30.851Z,40.10
2023-02-19T06:15:30.755Z,41.10
2023-02-19T06:16:30.805Z,42.10
2023-02-19T06:17:30.724Z,37.80
2023-02-19T06:18:30.719Z,42.60
2023-02-19T06:19:30.686Z,43.40
2023-02-19T06:20:30.679Z,38.50
2023-02-19T06:21:30.706Z,38.40
2023-02-19T06:22:30.668Z,40.30
2023-02-19T06:23:30.637Z,36.30
2023-02-19T06:24:30.638Z,37.90
2023-02-19T06:25:30.600Z,39.50
2023-02-19T06:26:30.636Z,36.20
2023-02-19T06:27:30.608Z,33.10
2023-02-19T06:28:30.597Z,35.70
2023-02-19T06:29:30.590Z,33.10
2023-02-19T06:30:30.646Z,33.40
2023-02-19T06:31:30.672Z,29.50
2023-02-19T06:32:30.582Z,34.00
2023-02-19T06:33:30.564Z,35.10
2023-02-19T06:34:30.587Z,32.50
2023-02-19T06:35:30.498Z,28.40
2023-02-19T06:36:30.503Z,39.00
2023-02-19T06:37:30.502Z,32.30
2023-02-19T06:38:30.480Z,33.50
2023-02-19T06:39:30.452Z,31.90
2023-02-19T06:40:30.490Z,31.10
2023-02-19T06:41:30.428Z,30.80
2023-02-19T06:42:30.436Z,29.40
2023-02-19T06:43:30.448Z,32.90
2023-02-19T06:44:30.410Z,26.60
2023-02-19T06:45:30.423Z,27.40
2023-02-19T06:46:30.474Z,23.50
2023-02-19T06:47:30.368Z,26.60
2023-02-19T06:48:30.389Z,23.70
2023-02-19T06:49:30.402Z,28.00
2023-02-19T06:50:30.376Z,22.80
2023-02-19T06:51:30.363Z,22.00
2023-02-19T06:52:30.340Z,22.50
2023-02-19T06:53:30.372Z,27.40
2023-02-19T06:54:30.299Z,24.70
2023-02-19T06:55:30.292Z,23.30
2023-02-19T06:56:30.353Z,26.60
2023-02-19T06:57:30.315Z,26.20
2023-02-19T06:58:30.466Z,29.00
2023-02-19T06:59:30.251Z,23.20
2023-02-19T07:00:30.319Z,26.60
2023-02-19T07:01:30.245Z,22.70
2023-02-19T07:02:30.231Z,23.30
2023-02-19T07:03:30.281Z,22.60
2023-02-19T07:04:30.295Z,23.30
2023-02-19T07:05:30.217Z,21.60
2023-02-19T07:06:30.253Z,20.80
2023-02-19T07:07:30.221Z,20.80
2023-02-19T07:08:30.163Z,21.70
2023-02-19T07:09:30.163Z,20.60
2023-02-19T07:10:30.227Z,23.00
2023-02-19T07:11:30.132Z,21.30
2023-02-19T07:12:30.135Z,20.60
2023-02-19T07:13:30.165Z,22.90
2023-02-19T07:14:30.142Z,24.70
2023-02-19T07:15:30.124Z,23.40
2023-02-19T07:16:30.219Z,23.20
2023-02-19T07:17:30.075Z,24.20
2023-02-19T07:18:30.060Z,23.60
2023-02-19T07:19:30.092Z,22.00
2023-02-19T07:20:30.138Z,17.90
2023-02-19T07:21:30.009Z,21.30
2023-02-19T07:22:30.064Z,20.90
2023-02-19T07:23:30.014Z,22.40
2023-02-19T07:24:30.002Z,22.20
2023-02-19T07:25:29.988Z,18.80
2023-02-19T07:26:29.985Z,20.30
2023-02-19T07:27:29.998Z,19.50
2023-02-19T07:28:29.950Z,21.00
2023-02-19T07:29:29.920Z,19.30
2023-02-19T07:30:30.021Z,18.10
2023-02-19T07:31:30.068Z,17.80
2023-02-19T07:32:29.932Z,20.90
2023-02-19T07:33:29.889Z,20.00
2023-02-19T07:34:29.880Z,20.30
2023-02-19T07:35:29.920Z,19.30
2023-02-19T07:36:29.872Z,21.40
2023-02-19T07:37:29.911Z,20.50
2023-02-19T07:38:29.879Z,21.30
2023-02-19T07:39:29.877Z,20.20
2023-02-19T07:40:29.888Z,21.60
2023-02-19T07:41:29.818Z,21.50
2023-02-19T07:42:29.804Z,20.60
2023-02-19T07:43:29.859Z,20.00
2023-02-19T07:44:29.762Z,19.80
2023-02-19T07:45:29.869Z,17.20
2023-02-19T07:46:29.779Z,17.00
2023-02-19T07:47:29.749Z,15.80
2023-02-19T07:48:29.738Z,17.90
2023-02-19T07:49:29.803Z,16.30
2023-02-19T07:50:29.738Z,17.30
2023-02-19T07:51:29.694Z,18.60
2023-02-19T07:52:29.718Z,15.50
2023-02-19T07:53:29.694Z,19.10
2023-02-19T07:54:29.719Z,17.50
2023-02-19T07:55:29.668Z,18.50
2023-02-19T07:56:29.693Z,18.00
2023-02-19T07:57:29.646Z,20.40
2023-02-19T07:58:29.694Z,21.60
2023-02-19T07:59:29.644Z,19.70
2023-02-19T08:00:29.613Z,21.00
2023-02-19T08:01:29.615Z,19.00
2023-02-19T08:02:29.625Z,19.60
2023-02-19T08:03:29.666Z,18.20
2023-02-19T08:04:29.604Z,20.80
2023-02-19T08:05:29.602Z,18.70
2023-02-19T08:06:29.625Z,17.80
2023-02-19T08:07:29.547Z,22.50
2023-02-19T08:08:29.567Z,20.60
2023-02-19T08:09:29.535Z,18.80
2023-02-19T08:10:29.515Z,23.30
2023-02-19T08:11:29.545Z,19.90
2023-02-19T08:12:29.486Z,17.00
2023-02-19T08:13:29.479Z,18.60
2023-02-19T08:14:29.498Z,18.20
2023-02-19T08:15:29.475Z,17.60
2023-02-19T08:16:42.694Z,19.30
2023-02-19T08:17:29.463Z,18.30
2023-02-19T08:18:29.428Z,19.40
2023-02-19T08:19:29.466Z,19.30
2023-02-19T08:20:29.419Z,19.50
2023-02-19T08:21:29.387Z,19.90
2023-02-19T08:22:29.432Z,19.30
2023-02-19T08:23:29.392Z,19.60
2023-02-19T08:24:29.410Z,18.50
2023-02-19T08:25:29.358Z,21.90
2023-02-19T08:26:29.430Z,18.20
2023-02-19T08:27:29.382Z,16.40
2023-02-19T08:28:29.334Z,16.00
2023-02-19T08:29:29.347Z,14.60
2023-02-19T08:30:29.470Z,16.00
2023-02-19T08:31:29.373Z,15.80
2023-02-19T08:32:29.327Z,13.80
2023-02-19T08:33:29.273Z,14.20
2023-02-19T08:34:29.270Z,13.80
2023-02-19T08:35:29.276Z,17.40
2023-02-19T08:36:29.300Z,15.50
2023-02-19T08:37:29.292Z,14.50
2023-02-19T08:38:29.255Z,16.50
2023-02-19T08:39:29.250Z,13.00
2023-02-19T08:40:29.295Z,14.50
2023-02-19T08:41:29.193Z,16.50
2023-02-19T08:42:29.176Z,18.40
2023-02-19T08:43:29.155Z,15.10
2023-02-19T08:44:29.176Z,16.30
2023-02-19T08:45:29.225Z,16.60
2023-02-19T08:46:29.156Z,15.20
2023-02-19T08:47:29.127Z,14.00
2023-02-19T08:48:29.113Z,14.00
2023-02-19T08:49:29.160Z,14.00
2023-02-19T08:50:29.079Z,13.10
2023-02-19T08:51:29.114Z,15.10
2023-02-19T08:52:29.079Z,12.70
2023-02-19T08:53:29.049Z,16.10
2023-02-19T08:54:29.100Z,12.30
2023-02-19T08:55:29.132Z,14.30
2023-02-19T08:56:29.014Z,14.10
2023-02-19T08:57:29.039Z,12.40
2023-02-19T08:58:28.988Z,14.40
2023-02-19T08:59:29.005Z,17.40
2023-02-19T09:00:28.974Z,15.20
2023-02-19T09:01:29.088Z,11.90
2023-02-19T09:02:28.959Z,13.50
2023-02-19T09:03:28.971Z,15.90
2023-02-19T09:04:29.016Z,14.10
2023-02-19T09:05:28.942Z,15.90
2023-02-19T09:06:28.938Z,16.50
2023-02-19T09:07:28.905Z,14.30
2023-02-19T09:08:29.226Z,14.00
2023-02-19T09:09:28.896Z,15.60
2023-02-19T09:10:28.917Z,14.90
2023-02-19T09:11:28.853Z,14.50
2023-02-19T09:12:28.844Z,14.50
2023-02-19T09:13:28.858Z,17.90
2023-02-19T09:14:28.850Z,15.90
2023-02-19T09:15:28.834Z,13.20
2023-02-19T09:16:28.840Z,15.90
2023-02-19T09:17:28.839Z,13.10
2023-02-19T09:18:28.872Z,13.60
2023-02-19T09:19:28.807Z,13.50
2023-02-19T09:20:28.772Z,13.90
2023-02-19T09:21:28.784Z,15.70
2023-02-19T09:22:28.747Z,17.40
2023-02-19T09:23:28.759Z,12.40
2023-02-19T09:24:28.746Z,14.50
2023-02-19T09:25:28.731Z,14.30
2023-02-19T09:26:28.730Z,14.40
2023-02-19T09:27:28.750Z,15.30
2023-02-19T09:28:28.736Z,16.00
2023-02-19T09:29:28.708Z,16.40
2023-02-19T09:30:28.681Z,17.00
2023-02-19T09:31:28.716Z,14.50
2023-02-19T09:32:28.651Z,16.50
2023-02-19T09:33:28.654Z,16.40
2023-02-19T09:34:28.686Z,18.20
2023-02-19T09:35:28.656Z,14.80
2023-02-19T09:36:28.615Z,19.50
2023-02-19T09:37:28.634Z,15.10
2023-02-19T09:38:28.599Z,15.40
2023-02-19T09:39:28.604Z,13.90
2023-02-19T09:40:28.572Z,18.30
2023-02-19T09:41:28.607Z,17.60
2023-02-19T09:42:28.554Z,18.80
2023-02-19T09:43:28.580Z,15.40
2023-02-19T09:44:28.557Z,16.30
2023-02-19T09:45:28.536Z,16.20
2023-02-19T09:46:28.543Z,16.50
2023-02-19T09:47:28.525Z,17.10
2023-02-19T09:48:28.503Z,14.30
2023-02-19T09:49:28.504Z,17.60
2023-02-19T09:50:28.512Z,20.20
2023-02-19T09:51:30.096Z,16.20
2023-02-19T09:52:28.449Z,16.20
2023-02-19T09:53:28.451Z,16.90
2023-02-19T09:54:28.443Z,16.10
2023-02-19T09:55:28.624Z,14.20
2023-02-19T09:56:28.428Z,15.80
2023-02-19T09:57:28.383Z,19.00
2023-02-19T09:58:28.469Z,19.20
2023-02-19T09:59:28.466Z,17.90
2023-02-19T10:00:28.362Z,18.00
2023-02-19T10:01:28.391Z,16.20
2023-02-19T10:02:28.357Z,21.00
2023-02-19T10:03:28.335Z,20.50
2023-02-19T10:04:28.369Z,18.90
2023-02-19T10:05:28.389Z,17.70
2023-02-19T10:06:28.289Z,19.70
2023-02-19T10:07:28.332Z,18.90
2023-02-19T10:08:28.317Z,21.60
2023-02-19T10:09:28.292Z,19.40
2023-02-19T10:10:28.292Z,18.20
2023-02-19T10:11:28.269Z,19.20
2023-02-19T10:12:28.278Z,18.20
2023-02-19T10:13:28.257Z,21.80
2023-02-19T10:14:28.266Z,18.80
2023-02-19T10:15:28.247Z,18.50
2023-02-19T10:16:28.240Z,20.60
2023-02-19T10:17:28.219Z,22.80
2023-02-19T10:18:28.168Z,10.30
2023-02-19T10:19:28.195Z,3.60
2023-02-19T10:20:28.196Z,2.90
2023-02-19T10:21:28.194Z,2.00
2023-02-19T10:22:28.138Z,2.00
2023-02-19T10:23:28.145Z,2.40
2023-02-19T10:24:28.171Z,1.90
2023-02-19T10:25:28.119Z,2.20
2023-02-19T10:26:28.132Z,2.10
2023-02-19T10:27:28.110Z,2.90
2023-02-19T10:28:28.068Z,2.40
2023-02-19T10:29:28.095Z,2.30
2023-02-19T10:30:28.196Z,4.10
2023-02-19T10:31:28.301Z,3.40
2023-02-19T10:32:28.044Z,2.90
2023-02-19T10:33:28.060Z,3.00
2023-02-19T10:34:28.085Z,3.10
2023-02-19T10:35:28.038Z,4.90
2023-02-19T10:36:31.317Z,3.50
2023-02-19T10:37:27.996Z,3.70
2023-02-19T10:38:28.497Z,3.90
2023-02-19T10:39:27.995Z,4.60
2023-02-19T10:40:27.974Z,6.70
2023-02-19T10:41:27.966Z,6.80
2023-02-19T10:42:27.925Z,5.00
2023-02-19T10:43:27.937Z,3.80
2023-02-19T10:44:27.957Z,4.80
2023-02-19T10:45:27.923Z,4.00
2023-02-19T10:46:28.051Z,3.80
2023-02-19T10:47:27.917Z,5.70
2023-02-19T10:48:27.874Z,6.60
2023-02-19T10:49:27.884Z,4.50
2023-02-19T10:50:27.894Z,4.10
2023-02-19T10:51:27.863Z,5.10
2023-02-19T10:52:27.828Z,5.20
2023-02-19T10:53:27.819Z,6.40
2023-02-19T10:54:27.823Z,5.40
2023-02-19T10:55:27.809Z,3.50
2023-02-19T10:56:27.823Z,3.80
2023-02-19T10:57:27.893Z,7.20
2023-02-19T10:58:27.765Z,3.90
2023-02-19T10:59:27.790Z,3.90
2023-02-19T11:00:27.751Z,3.90
2023-02-19T11:01:27.790Z,4.50
2023-02-19T11:02:27.735Z,4.20
2023-02-19T11:03:27.772Z,4.10
2023-02-19T11:04:27.833Z,3.40
2023-02-19T11:05:27.723Z,4.20
2023-02-19T11:06:27.701Z,4.90
2023-02-19T11:07:27.708Z,3.40
2023-02-19T11:08:27.681Z,3.60
2023-02-19T11:09:27.669Z,3.40
2023-02-19T11:10:27.649Z,3.60
2023-02-19T11:11:27.663Z,3.80
2023-02-19T11:12:27.605Z,4.90
2023-02-19T11:13:27.635Z,3.70
2023-02-19T11:14:27.740Z,6.20
2023-02-19T11:15:27.574Z,7.90
2023-02-19T11:16:27.650Z,4.00
2023-02-19T11:17:27.616Z,5.40
2023-02-19T11:18:27.575Z,5.70
2023-02-19T11:19:27.590Z,7.80
2023-02-19T11:20:27.521Z,5.20
2023-02-19T11:21:27.555Z,4.20
2023-02-19T11:22:27.582Z,5.10
2023-02-19T11:23:27.547Z,3.70
2023-02-19T11:24:27.494Z,5.40
2023-02-19T11:25:27.499Z,6.30
2023-02-19T11:26:27.460Z,4.60
2023-02-19T11:27:27.473Z,8.60
2023-02-19T11:28:27.464Z,5.00
2023-02-19T11:29:28.434Z,6.80
2023-02-19T11:30:27.483Z,7.70
2023-02-19T11:31:27.541Z,4.50
2023-02-19T11:32:27.496Z,4.00
2023-02-19T11:33:27.538Z,4.10
2023-02-19T11:34:27.400Z,4.30
2023-02-19T11:35:27.390Z,3.70
2023-02-19T11:36:29.958Z,5.60
2023-02-19T11:37:27.359Z,4.10
2023-02-19T11:38:27.371Z,4.10
2023-02-19T11:39:27.355Z,7.00
2023-02-19T11:40:27.316Z,5.90
2023-02-19T11:41:27.334Z,3.80
2023-02-19T11:42:29.402Z,4.60
2023-02-19T11:43:27.321Z,4.90
2023-02-19T11:44:27.290Z,3.80
2023-02-19T11:45:27.352Z,3.40
2023-02-19T11:46:27.315Z,4.50
2023-02-19T11:47:27.289Z,3.90
2023-02-19T11:48:28.627Z,4.00
2023-02-19T11:49:27.288Z,3.20
2023-02-19T11:50:27.229Z,4.50
2023-02-19T11:51:27.226Z,4.10
2023-02-19T11:52:27.234Z,3.80
2023-02-19T11:53:27.200Z,5.20
2023-02-19T11:54:27.160Z,6.10
2023-02-19T11:55:27.251Z,6.20
2023-02-19T11:56:27.178Z,6.00
2023-02-19T11:57:27.147Z,4.20
2023-02-19T11:58:27.175Z,4.30
2023-02-19T11:59:27.119Z,5.60
2023-02-19T12:00:27.149Z,7.50
2023-02-19T12:01:27.123Z,4.90
2023-02-19T12:02:27.141Z,4.30
2023-02-19T12:03:27.097Z,3.50
2023-02-19T12:04:27.118Z,4.80
2023-02-19T12:05:27.310Z,4.70
2023-02-19T12:06:27.045Z,3.80
2023-02-19T12:07:27.037Z,6.50
2023-02-19T12:08:27.088Z,4.60
2023-02-19T12:09:27.083Z,4.80
2023-02-19T12:10:27.047Z,3.90
2023-02-19T12:11:27.021Z,3.90
2023-02-19T12:12:27.048Z,3.90
2023-02-19T12:13:26.989Z,4.70
2023-02-19T12:14:26.966Z,5.20
2023-02-19T12:15:27.010Z,4.40
2023-02-19T12:16:26.989Z,4.50
2023-02-19T12:17:26.922Z,5.00
2023-02-19T12:18:26.928Z,5.20
2023-02-19T12:19:26.965Z,4.20
2023-02-19T12:20:26.931Z,6.30
2023-02-19T12:21:26.909Z,5.10
2023-02-19T12:22:26.913Z,5.30
2023-02-19T12:23:26.864Z,5.70
2023-02-19T12:24:26.875Z,4.70
2023-02-19T12:25:26.897Z,4.20
2023-02-19T12:26:26.847Z,3.80
2023-02-19T12:27:26.878Z,4.10
2023-02-19T12:28:26.878Z,4.40
2023-02-19T12:29:26.823Z,3.60
2023-02-19T12:30:26.876Z,3.30
2023-02-19T12:31:26.907Z,3.90
2023-02-19T12:32:26.807Z,4.50
2023-02-19T12:33:26.772Z,4.10
2023-02-19T12:34:26.773Z,5.40
2023-02-19T12:35:26.750Z,3.50
2023-02-19T12:36:26.729Z,5.40
2023-02-19T12:37:26.732Z,3.60
2023-02-19T12:38:26.785Z,3.50
2023-02-19T12:39:26.722Z,5.70
2023-02-19T12:40:26.714Z,4.00
2023-02-19T12:41:26.681Z,2.80
2023-02-19T12:42:26.722Z,3.50
2023-02-19T12:43:26.653Z,3.90
2023-02-19T12:44:26.659Z,4.00
2023-02-19T12:45:26.634Z,3.80
2023-02-19T12:46:26.700Z,5.00
2023-02-19T12:47:26.649Z,4.00
2023-02-19T12:48:26.637Z,7.00
2023-02-19T12:49:26.577Z,5.90
2023-02-19T12:50:26.622Z,4.40
2023-02-19T12:51:26.607Z,5.10
2023-02-19T12:52:26.563Z,4.50
2023-02-19T12:53:26.550Z,4.90
2023-02-19T12:54:26.568Z,5.00
2023-02-19T12:55:26.543Z,5.70
2023-02-19T12:56:26.551Z,5.40
2023-02-19T12:57:26.524Z,5.60